Kars, Turkey

12:13 PM +03 on February 25, 2017 (GMT +0300)
Kars | | Change Station

Elev 5886 ft 40.56 °N, 43.12 °E | Updated 1 hour ago

Fog
Fog
14 °F
Feels Like 14 °F
N
2
Wind Variable Wind from NNW

Today
High -- | Low -- °F
--% Chance of Precip.
Yesterday
High -- | Low -- °F
Precip. -- in
Pressure 30.30 in
Visibility 3.1 miles
Clouds
Dew Point 10 °F
Humidity 86%
Rainfall 0.00 in
Snow Depth Not available.
6:47 AM 5:54 PM
Waning Crescent, 2% visible
METAR LTCF 250750Z 33002KT 5000 BR NSC M10/M12 Q1026
Pressure 30.30 in
Visibility 3.1 miles
Clouds
Dew Point 10 °F
Humidity 86%
Rainfall 0.00 in
Snow Depth Not available.
6:47 AM 5:54 PM
Waning Crescent, 2% visible
METAR LTCF 250750Z 33002KT 5000 BR NSC M10/M12 Q1026

Get Your Daily Forecast Email!

Thanks for signing up!

Be on the lookout for a verification email in your inbox.

You'll start receiving the daily forecast at 8 AM.

×

10-Day Weather Forecast

×

Almanac

Astronomy

Feb. 25, 2017 Rise Set
Actual Time
Civil Twilight
Nautical Twilight
Astronomical Twilight
Moon
Length of Visible Light
Length of Day
Tomorrow will be .
, % of the Moon is Illuminated

Today's Extremes

Country Highs Country Lows

Community

WunderPhotos

Upload Photos

1,962,540 photos uploaded!

WunderBlog® & News

Nearby

Air Quality

  Air Quality AQ Index Pollutant
Not available.

Snow Depth

Station Depth Elevation

Earthquake Activity

City Distance Mag. Time & Date
Minimum magnitude displayed is 2.5.

Coastal Water Temperatures

Place Temperature

Stations

Nearby Weather Stations

Station Location Temp. Windchill Dew Point Humidity Wind Precip. Elev Updated Type